createdAt,value
2023-04-17T00:01:04.060Z,8.11
2023-04-17T00:06:10.004Z,7.99
2023-04-17T00:11:18.000Z,7.91
2023-04-17T00:16:24.319Z,7.89
2023-04-17T00:21:30.037Z,7.84
2023-04-17T00:26:35.673Z,7.78
2023-04-17T00:31:41.615Z,7.70
2023-04-17T00:36:47.042Z,7.68
2023-04-17T00:41:52.543Z,7.71
2023-04-17T00:46:57.951Z,7.81
2023-04-17T00:52:03.986Z,7.88
2023-04-17T00:57:09.909Z,7.83
2023-04-17T01:02:16.744Z,7.74
2023-04-17T01:07:22.568Z,7.71
2023-04-17T01:12:28.012Z,7.74
2023-04-17T01:17:33.594Z,7.70
2023-04-17T01:22:39.524Z,7.68
2023-04-17T01:27:44.935Z,7.71
2023-04-17T01:32:50.848Z,7.73
2023-04-17T01:37:56.891Z,7.72
2023-04-17T01:43:02.355Z,7.70
2023-04-17T01:48:08.710Z,7.72
2023-04-17T01:53:14.126Z,7.74
2023-04-17T01:58:19.987Z,7.70
2023-04-17T02:03:25.993Z,7.69
2023-04-17T02:08:31.550Z,7.71
2023-04-17T02:13:38.254Z,7.74
2023-04-17T02:18:43.770Z,7.77
2023-04-17T02:23:49.261Z,7.75
2023-04-17T02:28:54.949Z,7.70
2023-04-17T02:34:00.872Z,7.75
2023-04-17T02:39:07.438Z,7.73
2023-04-17T02:44:12.943Z,7.64
2023-04-17T02:49:18.548Z,7.59
2023-04-17T02:54:24.174Z,7.62
2023-04-17T02:59:30.314Z,7.58
2023-04-17T03:04:38.804Z,7.45
2023-04-17T03:09:45.787Z,7.38
2023-04-17T03:14:52.466Z,7.40
2023-04-17T03:19:57.911Z,7.39
2023-04-17T03:25:03.393Z,7.36
2023-04-17T03:30:15.816Z,7.40
2023-04-17T03:35:25.200Z,7.49
2023-04-17T03:40:33.209Z,7.54
2023-04-17T03:45:39.726Z,7.59
2023-04-17T03:50:45.387Z,7.64
2023-04-17T03:55:51.216Z,7.71
2023-04-17T04:01:04.123Z,7.79
2023-04-17T04:06:13.235Z,7.84
2023-04-17T04:11:18.855Z,7.94
2023-04-17T04:16:24.461Z,8.05
2023-04-17T04:21:31.820Z,8.12
2023-04-17T04:26:41.001Z,8.17
2023-04-17T04:31:46.920Z,8.20
2023-04-17T04:36:52.828Z,8.25
2023-04-17T04:42:29.431Z,8.28
2023-04-17T04:47:44.547Z,8.30
2023-04-17T04:52:50.864Z,8.34
2023-04-17T04:58:11.108Z,8.42
2023-04-17T05:03:17.588Z,8.50
2023-04-17T05:08:24.671Z,8.55
2023-04-17T05:13:39.272Z,8.62
2023-04-17T05:18:48.369Z,8.68
2023-04-17T05:23:56.929Z,8.77
2023-04-17T05:29:02.350Z,8.87
2023-04-17T05:34:10.344Z,8.92
2023-04-17T05:39:16.775Z,9.05
2023-04-17T05:44:22.578Z,9.22
2023-04-17T05:49:28.528Z,9.36
2023-04-17T05:54:34.145Z,9.55
2023-04-17T05:59:40.365Z,9.46
2023-04-17T06:04:48.056Z,9.48
2023-04-17T06:09:53.581Z,9.51
2023-04-17T06:14:59.627Z,9.54
2023-04-17T06:20:11.765Z,9.81
2023-04-17T06:25:18.131Z,10.16
2023-04-17T06:30:24.012Z,10.51
2023-04-17T06:35:31.843Z,10.73
2023-04-17T06:40:43.505Z,11.19
2023-04-17T06:45:49.918Z,11.75
2023-04-17T06:50:55.360Z,11.72
2023-04-17T06:56:00.846Z,11.84
2023-04-17T07:01:06.640Z,12.32
2023-04-17T07:06:12.391Z,12.57
2023-04-17T07:11:17.957Z,12.95
2023-04-17T07:16:23.619Z,13.73
2023-04-17T07:21:29.272Z,14.11
2023-04-17T07:26:37.532Z,14.13
2023-04-17T07:31:43.032Z,13.91
2023-04-17T07:36:50.287Z,13.65
2023-04-17T07:41:56.851Z,13.36
2023-04-17T07:47:02.477Z,13.45
2023-04-17T07:52:08.824Z,13.28
2023-04-17T07:57:15.554Z,13.03
2023-04-17T08:02:22.753Z,12.95
2023-04-17T08:07:28.770Z,13.05
2023-04-17T08:12:34.288Z,13.34
2023-04-17T08:17:41.440Z,13.50
2023-04-17T08:22:47.660Z,13.55
2023-04-17T08:27:53.230Z,13.47
2023-04-17T08:32:58.877Z,13.36
2023-04-17T08:38:04.400Z,13.59
2023-04-17T08:43:16.447Z,13.54
2023-04-17T08:48:22.950Z,13.72
2023-04-17T08:53:28.582Z,14.45
2023-04-17T08:58:35.800Z,15.37
2023-04-17T09:03:43.521Z,16.82
2023-04-17T09:09:00.714Z,17.21
2023-04-17T09:14:06.358Z,16.55
2023-04-17T09:19:12.106Z,16.56
2023-04-17T09:24:32.099Z,16.81
2023-04-17T09:29:58.060Z,16.80
2023-04-17T09:35:06.153Z,16.42
2023-04-17T09:40:12.776Z,16.55
2023-04-17T09:45:24.464Z,16.80
2023-04-17T09:50:32.428Z,17.92
2023-04-17T09:55:41.696Z,18.29
2023-04-17T10:00:48.250Z,18.07
2023-04-17T10:05:54.271Z,17.32
2023-04-17T10:11:07.274Z,17.44
2023-04-17T10:16:13.111Z,17.89
2023-04-17T10:21:24.265Z,17.70
2023-04-17T10:26:37.975Z,17.60
2023-04-17T10:32:26.562Z,17.67
2023-04-17T10:37:59.423Z,18.03
2023-04-17T10:43:07.530Z,19.29
2023-04-17T10:48:26.521Z,19.86
2023-04-17T10:53:42.798Z,20.83
2023-04-17T10:58:59.721Z,21.14
2023-04-17T11:04:06.287Z,20.46
2023-04-17T11:09:12.268Z,20.76
2023-04-17T11:14:19.999Z,20.41
2023-04-17T11:19:26.616Z,19.50
2023-04-17T11:24:32.801Z,18.97
2023-04-17T11:29:38.210Z,18.51
2023-04-17T11:34:44.056Z,17.75
2023-04-17T11:39:49.480Z,17.08
2023-04-17T11:45:07.719Z,16.39
2023-04-17T11:50:16.750Z,15.95
2023-04-17T11:55:22.845Z,15.82
2023-04-17T12:00:30.162Z,15.71
2023-04-17T12:05:36.409Z,15.55
2023-04-17T12:10:45.559Z,15.56
2023-04-17T12:15:51.067Z,15.40
2023-04-17T12:20:56.701Z,15.23
2023-04-17T12:26:02.085Z,15.18
2023-04-17T12:31:07.915Z,15.13
2023-04-17T12:36:13.543Z,15.09
2023-04-17T12:41:20.091Z,15.03
2023-04-17T12:46:26.090Z,15.04
2023-04-17T12:51:37.476Z,15.09
2023-04-17T12:56:42.976Z,15.34
2023-04-17T13:01:48.695Z,15.51
2023-04-17T13:06:54.056Z,15.95
2023-04-17T13:11:59.530Z,16.26
2023-04-17T13:17:06.359Z,16.22
2023-04-17T13:22:12.297Z,16.12
2023-04-17T13:27:17.654Z,15.75
2023-04-17T13:32:23.398Z,15.19
2023-04-17T13:37:28.919Z,14.91
2023-04-17T13:42:34.381Z,14.91
2023-04-17T13:47:40.454Z,14.95
2023-04-17T13:52:46.008Z,14.95
2023-04-17T13:57:51.722Z,15.14
2023-04-17T14:02:57.536Z,15.21
2023-04-17T14:08:03.182Z,15.35
2023-04-17T14:13:09.651Z,15.59
2023-04-17T14:18:15.700Z,15.77
2023-04-17T14:23:21.155Z,15.86
2023-04-17T14:28:26.963Z,15.70
2023-04-17T14:33:32.723Z,15.75
2023-04-17T14:38:38.479Z,15.82
2023-04-17T14:43:44.681Z,15.69
2023-04-17T14:48:55.284Z,15.43
2023-04-17T14:54:01.525Z,15.22
2023-04-17T14:59:07.093Z,14.96
2023-04-17T15:04:12.635Z,14.75
2023-04-17T15:09:18.398Z,14.53
2023-04-17T15:14:23.980Z,14.50
2023-04-17T15:19:29.535Z,14.65
2023-04-17T15:24:36.004Z,14.63
2023-04-17T15:29:41.346Z,14.42
2023-04-17T15:34:47.420Z,14.24
2023-04-17T15:39:52.864Z,14.07
2023-04-17T15:44:58.529Z,14.08
2023-04-17T15:50:06.524Z,14.03
2023-04-17T15:55:12.512Z,13.92
2023-04-17T16:00:19.460Z,13.89
2023-04-17T16:05:24.960Z,13.81
2023-04-17T16:10:30.944Z,13.65
2023-04-17T16:15:36.593Z,13.54
2023-04-17T16:20:42.284Z,13.41
2023-04-17T16:25:50.264Z,13.25
2023-04-17T16:30:56.393Z,13.11
2023-04-17T16:36:02.300Z,12.97
2023-04-17T16:41:08.197Z,12.77
2023-04-17T16:46:23.853Z,12.56
2023-04-17T16:51:34.235Z,12.42
2023-04-17T16:56:40.413Z,12.31
2023-04-17T17:01:47.285Z,12.23
2023-04-17T17:06:52.829Z,12.12
2023-04-17T17:11:58.323Z,11.97
2023-04-17T17:17:03.764Z,11.87
2023-04-17T17:22:09.914Z,11.78
2023-04-17T17:27:15.627Z,11.64
2023-04-17T17:32:21.481Z,11.54
2023-04-17T17:37:27.687Z,11.46
2023-04-17T17:42:33.596Z,11.32
2023-04-17T17:47:40.624Z,11.20
2023-04-17T17:52:46.826Z,11.09
2023-04-17T17:57:52.242Z,11.01
2023-04-17T18:02:57.927Z,10.96
2023-04-17T18:08:03.796Z,10.93
2023-04-17T18:13:09.550Z,10.86
2023-04-17T18:18:15.341Z,10.78
2023-04-17T18:23:21.370Z,10.76
2023-04-17T18:28:27.497Z,10.73
2023-04-17T18:33:33.709Z,10.67
2023-04-17T18:38:39.522Z,10.58
2023-04-17T18:43:44.939Z,10.54
2023-04-17T18:48:50.725Z,10.52
2023-04-17T18:53:56.482Z,10.50
2023-04-17T18:59:02.516Z,10.43
2023-04-17T19:04:08.303Z,10.35
2023-04-17T19:09:14.100Z,10.30
2023-04-17T19:14:19.770Z,10.23
2023-04-17T19:19:25.644Z,10.18
2023-04-17T19:24:32.296Z,10.14
2023-04-17T19:29:38.341Z,10.10
2023-04-17T19:34:44.432Z,10.08
2023-04-17T19:39:51.592Z,10.01
2023-04-17T19:45:00.129Z,9.97
2023-04-17T19:50:06.700Z,9.93
2023-04-17T19:55:12.955Z,9.91
2023-04-17T20:00:19.398Z,9.92
2023-04-17T20:05:25.353Z,9.94
2023-04-17T20:10:30.970Z,9.95
2023-04-17T20:15:36.335Z,9.90
2023-04-17T20:20:41.787Z,9.86
2023-04-17T20:25:47.312Z,9.84
2023-04-17T20:30:52.871Z,9.80
2023-04-17T20:35:58.930Z,9.74
2023-04-17T20:41:04.608Z,9.72
2023-04-17T20:46:10.360Z,9.74
2023-04-17T20:51:18.273Z,9.70
2023-04-17T20:56:24.280Z,9.65
2023-04-17T21:01:29.834Z,9.60
2023-04-17T21:06:35.619Z,9.61
2023-04-17T21:11:41.670Z,9.60
2023-04-17T21:16:47.113Z,9.56
2023-04-17T21:21:53.425Z,9.53
2023-04-17T21:27:01.013Z,9.51
2023-04-17T21:32:07.297Z,9.44
2023-04-17T21:37:12.647Z,9.38
2023-04-17T21:42:18.103Z,9.35
2023-04-17T21:47:23.537Z,9.34
2023-04-17T21:52:29.290Z,9.33
2023-04-17T21:57:35.850Z,9.33
2023-04-17T22:02:41.506Z,9.34
2023-04-17T22:07:54.352Z,9.26
2023-04-17T22:13:01.204Z,9.14
2023-04-17T22:18:07.414Z,9.07
2023-04-17T22:23:12.992Z,9.04
2023-04-17T22:28:18.774Z,8.95
2023-04-17T22:33:24.317Z,8.86
2023-04-17T22:38:29.718Z,8.80
2023-04-17T22:43:36.380Z,8.73
2023-04-17T22:48:45.201Z,8.66
2023-04-17T22:53:50.957Z,8.60
2023-04-17T22:58:56.518Z,8.57
2023-04-17T23:04:01.921Z,8.58
2023-04-17T23:09:07.607Z,8.56
2023-04-17T23:14:13.410Z,8.54
2023-04-17T23:19:21.198Z,8.57
2023-04-17T23:24:26.668Z,8.58
2023-04-17T23:29:32.070Z,8.54
2023-04-17T23:34:37.907Z,8.50
2023-04-17T23:39:43.712Z,8.48
2023-04-17T23:44:49.337Z,8.48
2023-04-17T23:49:54.715Z,8.47
2023-04-17T23:55:00.099Z,8.41
